Time;durP1;ratioP1;P1;durP2;ratioP2;P2;SDS_P1;SDS_P2;PMS_P1;PMS_P2;Temp;Humidity;BMP_temperature;BMP_pressure;BME280_temperature;BME280_humidity;BME280_pressure;Samples;Min_cycle;Max_cycle;Signal;HPM_P1;HPM_P2
2022/07/27 00:00:36;;;;;;;4.32;1.17;;;20.30;46.90;;;16.52;60.55;95502.16;4990321;28;20388;-54
2022/07/27 00:03:01;;;;;;;2.92;1.20;;;20.20;46.90;;;16.50;61.04;95491.69;5007419;28;20026;-55
2022/07/27 00:05:30;;;;;;;2.30;0.95;;;20.20;47.00;;;16.48;61.15;95501.94;4975544;28;20026;-54
2022/07/27 00:07:59;;;;;;;2.30;1.00;;;20.20;47.30;;;16.48;60.88;95499.25;4983374;28;20030;-53
2022/07/27 00:10:25;;;;;;;2.33;1.05;;;20.20;47.30;;;16.41;59.05;95499.66;4975052;28;20129;-50
2022/07/27 00:12:53;;;;;;;12.73;6.10;;;20.10;47.10;;;16.45;60.96;95507.13;4956353;28;20116;-54
2022/07/27 00:15:19;;;;;;;2.85;1.25;;;20.20;47.30;;;16.52;58.97;95499.47;4986941;28;20585;-55
2022/07/27 00:17:48;;;;;;;6.25;3.05;;;20.20;47.10;;;16.60;61.08;95490.66;4983667;28;20056;-51
2022/07/27 00:20:14;;;;;;;7.75;2.10;;;20.30;47.40;;;16.64;60.49;95489.75;4992867;28;20048;-55
2022/07/27 00:22:42;;;;;;;3.72;2.58;;;20.30;47.40;;;16.70;60.10;95485.03;4980717;28;20385;-54
2022/07/27 00:25:17;;;;;;;3.65;2.25;;;20.40;47.40;;;16.78;60.32;95478.16;4971173;28;20022;-52
2022/07/27 00:27:46;;;;;;;2.22;1.15;;;20.40;47.60;;;16.86;59.44;95480.91;4973910;28;20110;-53
2022/07/27 00:30:19;;;;;;;3.88;1.00;;;20.50;47.40;;;16.94;59.17;95478.59;4992207;28;20116;-53
2022/07/27 00:32:45;;;;;;;3.60;1.00;;;20.60;47.40;;;17.01;57.92;95468.16;4983609;28;20022;-53
2022/07/27 00:35:24;;;;;;;3.55;1.15;;;20.60;47.00;;;17.12;57.43;95469.50;4991479;28;20037;-53
2022/07/27 00:37:50;;;;;;;3.42;1.17;;;20.70;47.00;;;17.22;58.16;95473.84;4976175;28;20113;-54
2022/07/27 00:40:18;;;;;;;3.60;1.20;;;20.70;46.80;;;17.31;57.34;95474.66;4973882;28;20078;-50
2022/07/27 00:42:50;;;;;;;1.90;1.02;;;20.80;46.80;;;17.35;56.89;95467.56;4968982;28;20393;-53
2022/07/27 00:45:19;;;;;;;4.27;1.17;;;20.90;46.70;;;17.36;56.63;95463.78;4983480;28;20029;-52
2022/07/27 00:47:45;;;;;;;1.80;1.20;;;20.90;46.40;;;17.37;57.22;95470.75;4974409;28;20026;-55
2022/07/27 00:50:11;;;;;;;1.88;1.10;;;21.00;46.40;;;17.39;57.08;95463.13;4979489;28;20067;-55
2022/07/27 00:52:41;;;;;;;2.47;0.90;;;21.00;46.30;;;17.43;56.69;95457.94;4988945;28;20041;-52
2022/07/27 00:55:08;;;;;;;3.10;1.00;;;21.00;46.30;;;17.46;56.42;95457.31;4982830;28;20038;-51
2022/07/27 00:57:34;;;;;;;3.72;1.10;;;21.10;46.10;;;17.49;54.83;95454.78;4992575;28;20045;-49
2022/07/27 01:00:00;;;;;;;2.70;0.90;;;21.10;45.90;;;17.53;56.12;95449.56;4980361;28;20138;-54
2022/07/27 01:02:26;;;;;;;1.10;0.88;;;21.20;45.90;;;17.57;55.91;95445.94;4990466;28;20444;-51
2022/07/27 01:04:57;;;;;;;1.52;1.05;;;21.20;45.80;;;17.58;54.18;95444.06;4992215;28;20486;-55
2022/07/27 01:07:25;;;;;;;2.67;1.10;;;21.20;45.70;;;17.65;55.43;95444.38;4973152;28;20113;-54
2022/07/27 01:09:57;;;;;;;2.03;0.90;;;21.20;45.70;;;17.67;55.72;95444.06;4980373;28;20026;-52
2022/07/27 01:12:30;;;;;;;4.68;1.08;;;21.30;45.70;;;17.67;54.63;95444.84;4990604;28;20164;-49
2022/07/27 01:14:59;;;;;;;3.13;1.25;;;21.30;45.60;;;17.69;54.80;95441.88;4990874;28;20073;-53
2022/07/27 01:17:29;;;;;;;3.95;1.15;;;21.30;45.40;;;17.71;54.77;95434.28;4992454;28;20033;-49
2022/07/27 01:19:57;;;;;;;1.38;0.88;;;21.30;45.40;;;17.71;56.32;95428.88;4992131;28;20033;-54
2022/07/27 01:22:28;;;;;;;1.52;1.00;;;21.30;45.40;;;17.68;56.54;95433.00;4982349;28;20029;-52
2022/07/27 01:24:54;;;;;;;1.98;0.90;;;21.40;45.60;;;17.63;56.09;95438.50;4986287;28;20037;-54
2022/07/27 01:27:23;;;;;;;0.90;0.77;;;21.30;45.50;;;17.56;57.00;95435.50;4992232;28;20645;-55
2022/07/27 01:29:49;;;;;;;1.80;1.05;;;21.30;45.70;;;17.47;57.18;95430.06;4974252;28;20128;-51
2022/07/27 01:32:18;;;;;;;1.92;0.98;;;21.30;45.70;;;17.38;57.36;95436.53;4981159;28;20093;-51
2022/07/27 01:34:50;;;;;;;3.20;0.93;;;21.20;45.80;;;17.24;57.83;95431.25;4971272;28;20034;-55
2022/07/27 01:37:21;;;;;;;2.23;1.20;;;21.10;46.10;;;17.17;58.50;95429.00;4978311;28;20576;-54
2022/07/27 01:39:53;;;;;;;4.07;1.15;;;21.00;46.00;;;17.09;58.64;95425.16;4985363;28;20030;-55
2022/07/27 01:42:19;;;;;;;3.20;0.90;;;20.90;46.00;;;16.97;59.49;95419.56;4983449;28;20029;-49
2022/07/27 01:44:51;;;;;;;3.40;1.17;;;20.80;46.40;;;16.91;59.62;95425.38;4991822;28;20385;-54
2022/07/27 01:47:16;;;;;;;1.95;1.10;;;20.80;46.60;;;16.82;59.89;95425.34;4978341;28;20041;-51
2022/07/27 01:49:45;;;;;;;3.85;1.05;;;20.70;46.70;;;16.76;59.80;95427.34;4986647;28;20452;-54
2022/07/27 01:52:11;;;;;;;2.17;1.02;;;20.60;46.90;;;16.69;60.21;95442.31;4983450;28;20041;-55
2022/07/27 01:54:39;;;;;;;1.08;0.80;;;20.50;47.10;;;16.56;60.29;95439.38;4991141;28;20037;-53
2022/07/27 01:57:04;;;;;;;2.35;1.20;;;20.40;47.20;;;16.45;60.38;95442.59;4987152;28;20556;-51
2022/07/27 01:59:30;;;;;;;2.88;1.23;;;20.30;47.30;;;16.33;61.32;95438.59;4972503;28;20026;-53
2022/07/27 02:01:59;;;;;;;5.03;0.88;;;20.20;47.50;;;16.21;60.82;95435.63;4980963;28;20017;-52
2022/07/27 02:04:27;;;;;;;1.00;0.88;;;20.10;47.60;;;16.12;61.95;95443.63;4970681;28;20037;-55
2022/07/27 02:07:03;;;;;;;2.08;1.17;;;20.00;47.70;;;16.06;62.79;95444.03;4966087;28;20733;-51
2022/07/27 02:09:29;;;;;;;1.92;0.90;;;19.90;47.90;;;15.96;63.85;95451.22;4976321;28;20077;-53
2022/07/27 02:14:39;;;;;;;3.22;1.15;;;19.80;48.50;;;15.72;64.44;95447.97;4991387;28;20045;-54
2022/07/27 02:17:05;;;;;;;1.58;1.10;;;19.70;48.60;;;15.62;65.06;95448.16;4989736;28;20026;-52
2022/07/27 02:19:34;;;;;;;1.38;0.80;;;19.60;48.90;;;15.54;66.62;95446.16;4991633;28;20392;-55
2022/07/27 02:22:03;;;;;;;2.30;1.30;;;19.50;49.10;;;15.43;67.17;95448.25;4990996;28;20060;-55
2022/07/27 02:24:29;;;;;;;2.70;1.17;;;19.40;49.60;;;15.39;66.72;95445.38;4989697;28;20030;-55
2022/07/27 02:26:55;;;;;;;2.75;1.50;;;19.30;49.70;;;15.33;66.69;95446.56;4991113;28;20051;-49
2022/07/27 02:29:23;;;;;;;2.97;1.08;;;19.30;49.90;;;15.19;67.51;95440.38;4973470;28;20021;-52
2022/07/27 02:31:52;;;;;;;3.28;1.30;;;19.20;50.20;;;15.04;68.87;95444.94;4969795;28;20018;-49
2022/07/27 02:34:18;;;;;;;2.80;1.40;;;19.00;50.60;;;14.96;69.61;95445.63;4971381;28;20026;-52
2022/07/27 02:36:44;;;;;;;1.80;1.20;;;19.00;50.80;;;14.86;69.53;95443.13;4973488;28;20045;-49
2022/07/27 02:39:21;;;;;;;2.28;1.30;;;18.90;51.00;;;14.76;70.23;95448.63;4971473;28;20481;-50
2022/07/27 02:41:50;;;;;;;4.50;1.48;;;18.80;51.60;;;14.65;70.81;95447.22;4975093;28;20029;-49
2022/07/27 02:44:28;;;;;;;3.20;1.48;;;18.70;51.70;;;14.51;71.21;95445.31;4971270;28;20026;-49
2022/07/27 02:46:55;;;;;;;3.83;1.27;;;18.60;52.00;;;14.41;71.46;95445.41;4971238;28;20054;-46
2022/07/27 02:49:20;;;;;;;2.53;1.42;;;18.50;51.90;;;14.32;71.53;95442.63;4986438;28;20022;-51
2022/07/27 02:51:53;;;;;;;3.50;1.50;;;18.40;52.20;;;14.22;72.28;95442.75;4970018;28;20397;-50
2022/07/27 02:54:24;;;;;;;;;;;18.30;52.70;;;14.17;72.83;95436.69;4986722;28;20096;-48
2022/07/27 02:56:55;;;;;;;2.15;1.42;;;18.20;52.00;;;14.08;73.02;95436.56;4978076;28;19913;-49
2022/07/27 02:59:24;;;;;;;1.63;1.50;;;18.20;52.60;;;13.99;73.65;95431.03;4985964;28;20556;-50
2022/07/27 03:01:50;;;;;;;2.38;1.50;;;18.10;52.90;;;13.94;74.29;95428.41;4979686;28;20037;-54
2022/07/27 03:04:20;;;;;;;3.10;1.63;;;18.00;53.10;;;13.90;74.06;95416.72;4986412;28;20026;-48
2022/07/27 03:06:49;;;;;;;2.95;2.08;;;18.00;53.50;;;13.85;74.48;95411.41;4970941;28;20053;-52
2022/07/27 03:09:15;;;;;;;3.78;1.65;;;17.90;53.60;;;13.79;74.97;95416.06;4971341;28;20065;-49
2022/07/27 03:11:43;;;;;;;2.85;1.38;;;17.90;53.80;;;13.77;75.29;95420.09;4985697;28;20046;-53
2022/07/27 03:14:15;;;;;;;2.95;1.40;;;17.80;54.00;;;13.72;76.51;95420.97;4970577;28;20567;-52
2022/07/27 03:16:41;;;;;;;4.65;1.50;;;17.80;54.40;;;13.71;76.59;95415.91;4971089;28;20030;-49
2022/07/27 03:19:07;;;;;;;1.75;1.23;;;17.80;54.30;;;13.73;76.52;95414.53;4974937;28;20018;-53
2022/07/27 03:21:33;;;;;;;4.00;1.60;;;17.70;54.50;;;13.73;76.62;95411.88;4966729;28;20030;-52
2022/07/27 03:24:02;;;;;;;6.22;1.50;;;17.70;54.70;;;13.75;76.12;95416.91;4970895;28;20030;-53
2022/07/27 03:26:35;;;;;;;3.30;1.33;;;17.70;55.00;;;13.78;76.44;95406.41;4970820;28;20130;-55
2022/07/27 03:29:01;;;;;;;3.15;1.60;;;17.70;55.00;;;13.81;76.52;95416.56;4970873;28;20026;-54
2022/07/27 03:31:29;;;;;;;2.70;1.58;;;17.70;55.20;;;13.87;77.84;95417.28;4970575;28;20026;-50
2022/07/27 03:33:55;;;;;;;1.80;1.67;;;17.80;55.40;;;13.96;77.19;95415.56;4970957;28;20030;-52
2022/07/27 03:36:24;;;;;;;3.45;1.50;;;17.90;55.60;;;14.07;77.53;95414.34;4969598;28;20030;-48
2022/07/27 03:38:50;;;;;;;2.83;1.48;;;17.90;55.90;;;14.20;77.39;95420.03;4980595;28;20037;-50
2022/07/27 03:41:21;;;;;;;2.70;1.52;;;18.00;55.90;;;14.32;76.70;95418.50;4972924;28;20364;-50
2022/07/27 03:43:47;;;;;;;2.88;1.33;;;18.00;56.00;;;14.43;76.24;95421.81;4973382;28;20397;-53
2022/07/27 03:46:22;;;;;;;5.47;1.17;;;18.20;55.90;;;14.55;73.87;95418.72;4974591;28;20030;-49
2022/07/27 03:48:47;;;;;;;1.80;1.30;;;18.30;55.70;;;14.67;74.33;95419.03;4974659;28;20025;-54
2022/07/27 03:51:16;;;;;;;2.58;1.42;;;18.40;55.60;;;14.77;74.20;95423.44;4989142;28;20034;-51
2022/07/27 03:53:47;;;;;;;5.25;1.23;;;18.50;55.60;;;14.84;73.81;95421.16;4974206;28;20116;-54
2022/07/27 03:56:13;;;;;;;2.45;1.42;;;18.60;55.60;;;14.91;73.49;95429.59;4992450;28;20033;-50
2022/07/27 03:58:42;;;;;;;1.70;1.30;;;18.70;55.40;;;14.95;74.22;95416.44;4992290;28;20350;-46
2022/07/27 04:01:20;;;;;;;1.77;1.60;;;18.80;55.50;;;15.00;74.13;95421.69;4975942;28;20021;-48
2022/07/27 04:03:45;;;;;;;5.25;1.77;;;18.90;55.50;;;15.09;75.42;95424.47;4993448;28;20049;-45
2022/07/27 04:06:11;;;;;;;2.45;2.03;;;18.90;55.40;;;15.17;75.79;95434.53;4976208;28;20469;-51
2022/07/27 04:08:37;;;;;;;5.85;2.03;;;19.00;55.50;;;15.19;74.35;95430.44;4993535;28;20025;-49
2022/07/27 04:11:03;;;;;;;2.53;1.88;;;19.00;55.40;;;15.23;73.66;95430.63;4993489;28;20401;-48
2022/07/27 04:13:32;;;;;;;2.85;2.00;;;19.10;55.40;;;15.20;73.23;95424.00;4993072;28;20025;-46
2022/07/27 04:15:59;;;;;;;4.22;1.60;;;19.10;55.40;;;15.17;73.62;95429.97;4975990;28;20037;-45
2022/07/27 04:18:29;;;;;;;4.05;1.70;;;19.10;55.30;;;15.13;73.17;95426.25;4992118;28;20028;-44
2022/07/27 04:20:55;;;;;;;3.90;2.13;;;19.10;55.20;;;15.14;73.05;95432.44;4982644;28;20108;-47
2022/07/27 04:23:23;;;;;;;4.35;1.63;;;19.10;55.10;;;15.12;73.06;95437.31;4989703;28;20553;-45
2022/07/27 04:25:49;;;;;;;4.43;2.33;;;19.10;55.20;;;15.11;73.67;95433.81;4992037;28;20080;-45
2022/07/27 04:28:21;;;;;;;2.58;1.90;;;19.10;55.10;;;15.12;73.77;95431.94;4993093;28;20018;-46
2022/07/27 04:30:50;;;;;;;5.97;1.63;;;19.20;55.30;;;15.14;73.61;95435.91;4991822;28;20025;-49
2022/07/27 04:33:19;;;;;;;2.65;1.33;;;19.20;55.20;;;15.18;73.49;95423.50;4974302;28;20152;-51
2022/07/27 04:35:47;;;;;;;2.40;1.40;;;19.20;55.10;;;15.22;72.47;95427.16;4973575;28;20038;-47
2022/07/27 04:38:13;;;;;;;3.08;1.70;;;19.30;55.10;;;15.27;73.38;95424.41;4987032;28;20022;-49
2022/07/27 04:40:42;;;;;;;2.15;1.80;;;19.30;55.00;;;15.35;73.88;95424.78;4971789;28;20424;-45
2022/07/27 04:43:08;;;;;;;2.95;1.70;;;19.40;55.30;;;15.38;72.88;95422.28;4992190;28;20108;-46
2022/07/27 04:45:36;;;;;;;2.42;1.27;;;19.40;55.10;;;15.43;72.44;95416.84;4972424;28;20117;-52
2022/07/27 04:48:11;;;;;;;5.40;1.67;;;19.40;55.10;;;15.47;72.26;95430.44;4973144;28;20030;-49
2022/07/27 04:50:43;;;;;;;3.70;1.58;;;19.50;55.00;;;15.55;72.67;95434.34;4982263;28;20030;-49
2022/07/27 04:53:12;;;;;;;2.80;1.88;;;19.60;55.10;;;15.60;73.14;95436.91;4973445;28;20034;-50
2022/07/27 04:55:44;;;;;;;2.15;1.52;;;19.60;55.10;;;15.67;72.50;95440.81;4985862;28;20041;-45
2022/07/27 04:58:13;;;;;;;1.85;1.38;;;19.70;55.10;;;15.75;72.05;95442.00;4981976;28;20037;-48
2022/07/27 05:00:44;;;;;;;4.72;1.65;;;19.80;54.90;;;15.81;71.10;95440.78;4987885;28;20148;-46
2022/07/27 05:03:18;;;;;;;2.00;1.55;;;19.90;54.70;;;15.90;71.58;95438.19;4975544;28;20017;-46
2022/07/27 05:05:49;;;;;;;4.32;1.45;;;20.00;55.20;;;16.02;72.50;95432.31;4992196;28;20033;-45
2022/07/27 05:08:21;;;;;;;4.10;1.90;;;20.10;54.70;;;16.13;71.46;95439.03;4992710;28;20037;-47
2022/07/27 05:10:47;;;;;;;6.05;2.00;;;20.20;54.60;;;16.25;70.48;95433.91;4991846;28;20037;-45
2022/07/27 05:13:16;;;;;;;7.43;1.55;;;20.30;54.30;;;16.39;68.30;95428.50;4991201;28;20087;-47
2022/07/27 05:15:42;;;;;;;3.47;1.73;;;20.50;54.00;;;16.55;66.67;95434.31;4992327;28;20103;-45
2022/07/27 05:18:08;;;;;;;6.95;1.65;;;20.70;53.80;;;16.72;65.57;95437.09;4970902;28;23945;-49
2022/07/27 05:20:34;;;;;;;3.10;1.40;;;20.80;53.30;;;16.90;65.10;95443.44;5002912;28;20033;-52
2022/07/27 05:22:59;;;;;;;3.15;1.50;;;20.90;53.00;;;17.14;63.99;95447.66;4987728;28;20030;-47
2022/07/27 05:25:25;;;;;;;3.67;1.50;;;21.10;52.70;;;17.55;62.50;95442.78;4972811;28;20473;-51
2022/07/27 05:27:53;;;;;;;2.70;1.50;;;21.50;52.20;;;18.11;60.52;95455.75;4986327;28;20443;-45
2022/07/27 05:30:22;;;;;;;19.58;2.33;;;21.90;51.60;;;18.71;58.85;95458.47;4973788;28;20025;-50
2022/07/27 05:32:48;;;;;;;8.98;1.60;;;22.30;50.90;;;19.24;57.36;95452.97;4987426;28;20029;-46
2022/07/27 05:35:16;;;;;;;7.15;1.58;;;22.80;50.40;;;19.66;55.45;95462.06;4969615;28;20034;-50
2022/07/27 05:37:51;;;;;;;14.18;2.92;;;23.10;49.60;;;20.01;53.94;95459.19;4939468;28;73353;-46
2022/07/27 05:40:17;;;;;;;10.40;1.80;;;23.50;49.00;;;20.22;53.33;95457.31;4962677;28;20033;-46
2022/07/27 05:42:46;;;;;;;10.23;2.83;;;23.80;48.20;;;20.30;52.44;95461.06;4966897;28;20056;-46
2022/07/27 05:45:12;;;;;;;8.60;1.70;;;24.00;47.50;;;20.41;52.06;95456.84;4984820;28;20022;-46
2022/07/27 05:50:26;;;;;;;10.25;1.92;;;24.40;46.30;;;20.74;50.45;95454.19;4977331;28;20033;-48
2022/07/27 05:53:04;;;;;;;5.95;1.60;;;24.70;45.60;;;20.97;50.56;95460.06;4977292;28;20377;-50
2022/07/27 05:55:30;;;;;;;4.70;1.75;;;24.90;45.10;;;21.18;50.27;95467.31;4982524;28;20103;-47
2022/07/27 05:57:56;;;;;;;14.88;2.35;;;25.00;44.80;;;21.40;49.70;95464.25;4990436;28;20030;-48
2022/07/27 06:00:22;;;;;;;9.77;2.15;;;25.20;44.50;;;21.38;49.21;95465.72;4987517;28;20029;-53
2022/07/27 06:02:48;;;;;;;5.55;1.77;;;25.30;44.10;;;21.41;49.64;95468.53;4985647;28;20496;-47
2022/07/27 06:05:13;;;;;;;6.55;1.75;;;25.40;43.80;;;21.54;49.24;95463.91;4984514;28;20385;-50
2022/07/27 06:10:31;;;;;;;25.95;3.28;;;25.50;43.20;;;21.52;48.73;95466.16;4979673;28;20168;-50
2022/07/27 06:12:58;;;;;;;5.90;1.83;;;25.60;42.90;;;21.55;47.47;95470.13;4985344;28;20029;-48
2022/07/27 06:15:24;;;;;;;8.25;1.98;;;25.70;42.50;;;21.47;48.20;95469.91;4986306;28;20104;-44
2022/07/27 06:17:56;;;;;;;6.15;1.88;;;25.70;42.20;;;21.47;48.59;95478.03;4979820;28;20022;-46
2022/07/27 06:20:24;;;;;;;5.18;1.55;;;25.70;42.10;;;21.34;49.44;95472.88;4988827;28;20052;-47
2022/07/27 06:23:03;;;;;;;5.97;1.80;;;25.60;42.10;;;21.33;49.02;95474.00;4989331;28;20426;-50
2022/07/27 06:25:33;;;;;;;3.60;1.80;;;25.50;42.00;;;21.31;49.01;95471.66;4979821;28;20025;-47
2022/07/27 06:27:59;;;;;;;4.07;2.03;;;25.60;41.90;;;21.38;49.56;95474.63;4970268;28;20056;-51
2022/07/27 06:30:25;;;;;;;4.20;2.08;;;25.70;41.90;;;21.32;48.87;95478.66;4953586;28;20125;-51
2022/07/27 06:32:53;;;;;;;9.70;2.20;;;25.70;41.80;;;21.17;48.84;95471.16;4987433;28;20503;-48
2022/07/27 06:35:26;;;;;;;3.15;2.10;;;25.60;41.60;;;21.13;49.31;95472.97;4981158;28;20105;-46
2022/07/27 06:37:57;;;;;;;11.95;1.83;;;25.70;41.50;;;21.38;48.27;95466.50;4983368;28;20026;-50
2022/07/27 06:40:40;;;;;;;6.82;3.38;;;25.80;41.30;;;21.64;48.18;95478.94;4977186;28;20050;-46
2022/07/27 06:43:06;;;;;;;13.50;2.35;;;26.00;41.10;;;21.83;47.02;95471.03;4989559;28;20018;-47
2022/07/27 06:45:37;;;;;;;11.38;2.38;;;26.30;40.80;;;22.11;46.45;95481.19;4991025;28;20036;-47
2022/07/27 06:48:03;;;;;;;5.30;2.40;;;26.60;40.40;;;22.43;45.58;95481.41;4954532;28;20014;-49
2022/07/27 06:50:32;;;;;;;14.15;2.00;;;26.90;40.00;;;22.62;45.44;95485.06;4979742;28;20036;-46
2022/07/27 06:53:04;;;;;;;11.15;2.28;;;27.20;39.60;;;22.64;45.29;95480.09;4970081;28;20036;-46
2022/07/27 06:55:35;;;;;;;12.00;2.30;;;27.30;39.20;;;22.86;45.68;95484.22;4982304;28;20493;-46
2022/07/27 06:58:01;;;;;;;10.98;2.15;;;27.50;39.00;;;22.96;44.91;95482.94;4991263;28;20061;-47
2022/07/27 07:00:31;;;;;;;7.35;2.17;;;27.70;38.70;;;22.94;44.55;95479.81;4976174;28;20066;-46
2022/07/27 07:03:05;;;;;;;8.07;2.22;;;27.80;38.30;;;22.83;44.31;95494.97;4970424;28;20026;-46
2022/07/27 07:05:40;;;;;;;7.68;2.22;;;27.80;38.00;;;22.81;44.93;95497.25;4970331;28;20026;-53
2022/07/27 07:08:10;;;;;;;3.45;2.20;;;27.70;38.00;;;22.94;44.65;95485.25;4970520;28;20381;-47
2022/07/27 07:10:49;;;;;;;2.83;2.03;;;27.70;37.90;;;22.94;45.13;95490.69;4976428;28;20034;-46
2022/07/27 07:13:16;;;;;;;4.00;1.95;;;27.70;37.90;;;22.86;45.64;95491.56;4947911;28;24743;-47
2022/07/27 07:15:43;;;;;;;3.58;2.42;;;27.70;37.90;;;23.01;45.10;95490.09;4955955;28;20042;-49
2022/07/27 07:18:13;;;;;;;6.75;2.17;;;27.80;37.80;;;23.16;43.78;95488.53;4975265;28;20033;-45
2022/07/27 07:20:41;;;;;;;4.50;2.70;;;28.00;37.50;;;23.53;43.37;95497.25;4977746;28;20030;-47
2022/07/27 07:23:08;;;;;;;5.07;2.60;;;28.30;37.30;;;23.66;42.39;95487.91;4975052;28;20416;-48
2022/07/27 07:25:37;;;;;;;7.47;2.72;;;28.60;36.80;;;23.98;42.33;95485.97;4974494;28;20038;-52
2022/07/27 07:28:06;;;;;;;4.80;2.45;;;28.90;36.40;;;24.00;41.65;95482.91;4974484;28;20030;-46
2022/07/27 07:30:34;;;;;;;7.63;2.58;;;29.10;36.00;;;24.22;41.20;95490.44;4962987;28;20127;-46
2022/07/27 07:33:01;;;;;;;4.45;1.75;;;29.20;35.80;;;24.31;40.96;95484.78;5005580;28;20388;-47
2022/07/27 07:35:31;;;;;;;4.72;2.10;;;29.30;35.40;;;24.27;41.58;95485.84;4976895;28;20116;-49
2022/07/27 07:37:57;;;;;;;6.55;2.33;;;29.40;35.10;;;24.34;41.17;95486.78;4994432;28;20052;-45
2022/07/27 07:40:32;;;;;;;10.43;2.33;;;29.40;35.00;;;24.32;41.03;95486.38;4994192;28;20449;-46
2022/07/27 07:43:04;;;;;;;6.90;2.10;;;29.50;34.80;;;24.59;40.61;95484.63;4992837;28;20080;-49
2022/07/27 07:45:36;;;;;;;5.45;2.20;;;29.50;34.60;;;24.78;40.03;95488.53;4982174;28;20030;-46
2022/07/27 07:48:06;;;;;;;4.18;2.38;;;29.80;34.40;;;24.97;39.85;95491.22;4990043;28;20030;-46
2022/07/27 07:50:32;;;;;;;3.10;2.40;;;30.30;34.00;;;25.34;39.08;95479.91;4986419;28;20060;-46
2022/07/27 07:53:04;;;;;;;4.80;2.42;;;30.70;33.70;;;25.55;38.52;95482.22;4974086;28;20085;-47
2022/07/27 07:55:36;;;;;;;4.85;2.35;;;31.10;33.00;;;25.82;38.19;95489.34;4988459;28;20050;-46
2022/07/27 07:58:07;;;;;;;2.33;2.08;;;31.40;32.50;;;26.34;37.33;95484.28;5009904;28;20534;-48
2022/07/27 08:00:34;;;;;;;2.35;1.95;;;31.70;32.20;;;26.51;37.15;95486.50;4994136;28;20033;-49
2022/07/27 08:03:00;;;;;;;3.35;2.00;;;32.00;32.00;;;26.19;37.29;95482.50;4973668;28;20088;-49
2022/07/27 08:05:32;;;;;;;3.40;2.45;;;32.10;31.50;;;26.28;36.52;95483.81;4973140;28;20480;-48
2022/07/27 08:07:58;;;;;;;;;;;32.30;30.90;;;26.51;36.79;95485.69;4985223;28;20025;-47
2022/07/27 08:10:28;;;;;;;4.03;2.40;;;32.50;31.30;;;26.76;36.43;95486.84;4976072;28;19913;-47
2022/07/27 08:12:56;;;;;;;2.30;1.90;;;32.80;30.70;;;27.16;36.40;95493.56;4981764;28;20109;-49
2022/07/27 08:15:27;;;;;;;2.42;2.20;;;33.10;30.40;;;27.52;34.25;95493.97;4971030;28;20109;-50
2022/07/27 08:17:56;;;;;;;5.00;2.20;;;33.40;29.80;;;27.79;34.19;95494.63;4974429;28;20196;-46
2022/07/27 08:20:27;;;;;;;4.35;2.17;;;33.70;29.60;;;27.64;34.75;95493.69;4987976;28;20662;-50
2022/07/27 08:22:58;;;;;;;4.65;2.20;;;34.10;29.30;;;27.92;34.19;95486.91;4973499;28;20018;-49
2022/07/27 08:25:24;;;;;;;5.30;2.58;;;34.20;28.80;;;28.27;33.40;95491.88;4964167;28;20041;-46
2022/07/27 08:27:52;;;;;;;3.38;2.30;;;34.60;28.70;;;28.28;33.07;95481.69;4991988;28;20021;-51
2022/07/27 08:30:21;;;;;;;2.83;2.50;;;34.90;28.20;;;28.43;32.80;95485.34;4976644;28;20121;-51
2022/07/27 08:33:00;;;;;;;2.95;2.38;;;35.10;27.80;;;28.28;32.57;95485.22;4973999;28;20377;-47
2022/07/27 08:35:33;;;;;;;3.90;2.50;;;35.30;27.50;;;28.49;33.38;95481.09;4988785;28;20034;-48
2022/07/27 08:38:02;;;;;;;5.65;2.42;;;35.50;27.30;;;28.53;32.51;95484.63;4986386;28;20022;-53
2022/07/27 08:40:29;;;;;;;3.28;2.00;;;35.60;27.10;;;28.75;32.41;95491.00;4973496;28;20392;-52
2022/07/27 08:43:03;;;;;;;5.78;2.08;;;35.70;26.90;;;28.47;32.10;95481.44;4972617;28;20029;-47
2022/07/27 08:45:29;;;;;;;2.72;2.20;;;35.60;26.80;;;28.37;32.61;95477.47;4988421;28;20040;-51
2022/07/27 08:47:56;;;;;;;3.83;1.90;;;35.20;26.70;;;28.12;32.37;95480.03;4988517;28;20428;-47
2022/07/27 08:50:29;;;;;;;4.18;1.90;;;34.90;26.80;;;27.07;34.70;95478.59;4988192;28;20112;-51
2022/07/27 08:53:09;;;;;;;2.22;2.03;;;34.50;26.90;;;27.09;34.58;95479.03;4988296;28;20616;-48
2022/07/27 08:55:40;;;;;;;2.22;1.83;;;34.00;27.10;;;26.59;36.22;95479.19;4985844;28;20132;-49
2022/07/27 08:58:09;;;;;;;3.53;2.05;;;33.70;27.40;;;26.96;36.64;95482.00;4982680;28;20484;-54
2022/07/27 09:00:48;;;;;;;3.58;2.05;;;33.60;27.80;;;27.34;34.98;95477.38;4971994;28;20038;-53
2022/07/27 09:03:18;;;;;;;2.88;2.20;;;33.60;27.90;;;27.68;33.60;95477.31;4956442;28;20400;-47
2022/07/27 09:05:51;;;;;;;3.28;2.17;;;33.70;27.80;;;27.63;33.53;95475.69;4988222;28;20406;-47
2022/07/27 09:08:27;;;;;;;5.22;2.03;;;33.90;27.60;;;27.80;33.58;95476.28;4988269;28;20014;-51
2022/07/27 09:10:56;;;;;;;3.53;2.30;;;34.20;27.50;;;27.73;34.93;95478.88;4976260;28;20030;-48
2022/07/27 09:13:28;;;;;;;4.40;2.20;;;34.40;27.50;;;27.99;34.40;95473.28;4971889;28;20491;-51
2022/07/27 09:16:14;;;;;;;4.80;2.28;;;34.30;27.50;;;28.08;33.41;95478.41;4988111;28;20802;-47
2022/07/27 09:18:42;;;;;;;6.03;2.28;;;34.30;27.50;;;27.59;33.55;95476.81;4972883;28;20130;-47
2022/07/27 09:21:23;;;;;;;3.67;1.98;;;34.20;27.30;;;27.78;34.03;95471.16;4972915;28;20018;-50
2022/07/27 09:23:54;;;;;;;2.97;2.28;;;34.10;27.40;;;27.91;33.47;95474.38;4945968;28;20053;-49
2022/07/27 09:26:27;;;;;;;3.90;2.80;;;34.20;27.30;;;27.78;33.74;95471.16;4981399;28;20030;-49
2022/07/27 09:29:10;;;;;;;5.55;2.67;;;34.30;27.20;;;27.84;33.72;95485.28;4972766;28;20109;-50
2022/07/27 09:34:39;;;;;;;2.92;2.10;;;34.40;27.10;;;27.55;33.19;95479.53;4986550;28;20541;-50
2022/07/27 09:37:08;;;;;;;4.43;2.17;;;34.40;26.90;;;27.72;34.78;95475.38;4981818;28;20036;-53
2022/07/27 09:39:38;;;;;;;6.20;2.22;;;34.50;27.00;;;27.96;34.12;95478.75;5000441;28;20034;-53
2022/07/27 09:42:03;;;;;;;5.57;1.90;;;34.30;27.10;;;27.94;33.04;95476.38;4970872;28;20089;-53
2022/07/27 09:44:40;;;;;;;3.70;2.30;;;34.30;27.10;;;27.74;33.73;95478.53;4983524;28;20061;-51
2022/07/27 09:47:31;;;;;;;2.45;2.17;;;34.30;27.10;;;27.13;34.58;95480.63;4985748;28;20040;-53
2022/07/27 09:50:19;;;;;;;5.85;2.17;;;34.20;26.90;;;27.30;34.51;95478.50;4979687;28;20360;-52
2022/07/27 09:53:09;;;;;;;5.22;2.63;;;34.10;27.10;;;28.13;33.76;95486.28;4979395;28;20029;-52
2022/07/27 09:55:35;;;;;;;2.50;2.30;;;34.50;27.10;;;28.47;32.46;95481.44;4971538;28;20160;-51
2022/07/27 09:58:03;;;;;;;5.63;2.33;;;34.90;26.70;;;28.83;31.86;95473.41;4984557;28;20536;-51
2022/07/27 10:00:30;;;;;;;2.38;2.17;;;35.20;26.40;;;28.92;32.09;95481.28;4978587;28;20056;-50
2022/07/27 10:02:59;;;;;;;3.35;2.45;;;35.40;26.20;;;29.22;31.63;95473.59;4978687;28;20032;-49
2022/07/27 10:05:25;;;;;;;3.70;2.50;;;35.60;26.20;;;28.90;32.16;95467.97;4968290;28;20033;-53
2022/07/27 10:07:54;;;;;;;10.82;2.65;;;35.80;26.10;;;27.72;33.19;95471.84;4960653;28;20049;-50
2022/07/27 10:10:24;;;;;;;4.35;2.08;;;36.00;25.70;;;28.19;32.06;95471.06;4983390;28;20092;-50
2022/07/27 10:12:51;;;;;;;5.40;2.70;;;36.10;25.50;;;28.87;31.75;95467.97;4986795;28;20385;-51
2022/07/27 10:15:24;;;;;;;6.40;2.70;;;36.30;25.40;;;29.11;31.27;95471.97;4970912;28;20131;-51
2022/07/27 10:18:07;;;;;;;4.57;2.00;;;36.70;25.30;;;29.46;29.92;95472.06;4970566;28;20104;-55
2022/07/27 10:20:41;;;;;;;4.85;2.00;;;36.90;24.90;;;29.46;30.49;95468.56;4973286;28;20041;-55
2022/07/27 10:23:07;;;;;;;5.25;2.60;;;36.80;24.80;;;29.18;32.11;95463.78;4971646;28;20481;-51
2022/07/27 10:25:34;;;;;;;2.58;2.35;;;36.80;24.80;;;29.33;31.42;95465.38;4970685;28;20072;-53
2022/07/27 10:28:16;;;;;;;3.50;2.50;;;36.80;24.80;;;29.21;31.76;95465.75;4984335;28;20030;-51
2022/07/27 10:30:47;;;;;;;4.40;2.40;;;36.80;24.90;;;29.18;31.34;95467.31;4990488;28;20034;-51
2022/07/27 10:33:46;;;;;;;2.90;2.13;;;36.70;24.90;;;29.12;31.39;95462.59;4989952;28;20029;-49
2022/07/27 10:36:24;;;;;;;5.60;2.80;;;36.50;25.00;;;29.47;31.52;95467.38;4991099;28;20299;-49
2022/07/27 10:39:04;;;;;;;3.78;2.38;;;36.60;25.10;;;29.63;30.39;95467.03;4989268;28;20104;-50
2022/07/27 10:41:40;;;;;;;3.15;2.00;;;36.90;24.90;;;29.92;30.17;95467.81;4987566;28;20028;-50